createdAt,value
2018-05-08T00:01:53.683Z,8.87
2018-05-08T00:04:21.786Z,9.27
2018-05-08T00:06:49.871Z,8.53
2018-05-08T00:09:23.571Z,9.23
2018-05-08T00:11:57.155Z,8.87
2018-05-08T00:14:25.245Z,9.70
2018-05-08T00:16:53.331Z,9.00
2018-05-08T00:19:21.445Z,9.07
2018-05-08T00:21:49.528Z,8.33
2018-05-08T00:24:17.659Z,8.00
2018-05-08T00:26:46.551Z,8.80
2018-05-08T00:29:14.643Z,8.43
2018-05-08T00:31:42.814Z,7.43
2018-05-08T00:34:10.911Z,8.03
2018-05-08T00:36:39.775Z,7.77
2018-05-08T00:39:07.979Z,8.53
2018-05-08T00:41:36.046Z,7.87
2018-05-08T00:44:04.131Z,7.97
2018-05-08T00:46:32.215Z,8.10
2018-05-08T00:49:00.315Z,7.37
2018-05-08T00:51:28.397Z,8.00
2018-05-08T00:53:56.491Z,7.97
2018-05-08T00:56:25.415Z,8.17
2018-05-08T00:58:53.504Z,8.10
2018-05-08T01:01:21.630Z,7.30
2018-05-08T01:03:50.199Z,8.07
2018-05-08T01:06:18.283Z,7.27
2018-05-08T01:08:46.368Z,7.33
2018-05-08T01:11:15.181Z,7.63
2018-05-08T01:13:43.270Z,7.87
2018-05-08T01:16:11.355Z,7.77
2018-05-08T01:18:39.461Z,7.17
2018-05-08T01:21:07.530Z,7.40
2018-05-08T01:23:35.624Z,7.07
2018-05-08T01:26:03.723Z,7.63
2018-05-08T01:28:31.803Z,7.23
2018-05-08T01:30:59.893Z,8.20
2018-05-08T01:33:28.024Z,7.47
2018-05-08T01:35:56.165Z,7.50
2018-05-08T01:38:24.239Z,7.03
2018-05-08T01:40:52.395Z,7.53
2018-05-08T01:43:20.539Z,7.30
2018-05-08T01:45:48.567Z,6.93
2018-05-08T01:48:17.395Z,7.87
2018-05-08T02:03:45.505Z,7.40
2018-05-08T02:06:13.578Z,7.53
2018-05-08T02:08:44.693Z,7.30
2018-05-08T02:11:12.790Z,7.37
2018-05-08T02:13:40.929Z,7.57
2018-05-08T02:16:09.020Z,7.77
2018-05-08T02:18:37.101Z,7.80
2018-05-08T02:21:05.192Z,7.80
2018-05-08T02:23:33.625Z,7.33
2018-05-08T02:26:01.704Z,8.00
2018-05-08T02:28:29.791Z,8.87
2018-05-08T02:30:57.901Z,8.13
2018-05-08T02:33:26.326Z,8.70
2018-05-08T02:35:54.488Z,8.00
2018-05-08T02:38:22.570Z,8.50
2018-05-08T02:40:50.665Z,8.00
2018-05-08T02:43:18.770Z,8.30
2018-05-08T02:45:46.874Z,8.33
2018-05-08T02:48:15.020Z,8.63
2018-05-08T02:50:43.116Z,8.80
2018-05-08T02:53:11.211Z,8.00
2018-05-08T02:55:39.287Z,8.83
2018-05-08T02:58:07.386Z,8.20
2018-05-08T03:00:35.784Z,8.73
2018-05-08T03:03:03.872Z,8.10
2018-05-08T03:05:31.986Z,8.50
2018-05-08T03:08:00.074Z,8.37
2018-05-08T03:10:28.760Z,7.87
2018-05-08T03:12:56.852Z,7.77
2018-05-08T03:15:24.941Z,8.77
2018-05-08T03:17:53.041Z,8.27
2018-05-08T03:20:21.123Z,7.80
2018-05-08T03:22:49.199Z,8.40
2018-05-08T03:25:17.316Z,7.57
2018-05-08T03:27:45.409Z,7.93
2018-05-08T03:30:14.292Z,8.33
2018-05-08T03:32:42.476Z,8.20
2018-05-08T03:35:11.156Z,8.43
2018-05-08T03:37:40.248Z,8.33
2018-05-08T03:40:08.359Z,7.60
2018-05-08T03:42:37.243Z,7.97
2018-05-08T03:45:05.375Z,8.67
2018-05-08T03:47:33.468Z,9.27
2018-05-08T03:50:01.563Z,8.50
2018-05-08T03:52:29.667Z,8.67
2018-05-08T03:54:58.856Z,8.60
2018-05-08T03:57:27.709Z,8.67
2018-05-08T03:59:55.776Z,8.20
2018-05-08T04:15:23.914Z,9.83
2018-05-08T04:17:52.022Z,8.63
2018-05-08T04:20:21.470Z,9.43
2018-05-08T04:22:50.315Z,9.17
2018-05-08T04:25:20.376Z,9.37
2018-05-08T04:27:48.728Z,9.10
2018-05-08T04:30:16.901Z,9.23
2018-05-08T04:32:44.996Z,9.47
2018-05-08T04:35:13.088Z,9.97
2018-05-08T04:37:41.206Z,9.40
2018-05-08T04:40:09.290Z,9.90
2018-05-08T04:42:37.383Z,9.43
2018-05-08T04:45:05.504Z,9.87
2018-05-08T04:47:33.576Z,8.77
2018-05-08T04:50:01.666Z,9.50
2018-05-08T04:52:29.808Z,9.27
2018-05-08T04:54:57.912Z,8.77
2018-05-08T04:57:26.120Z,10.17
2018-05-08T04:59:59.852Z,9.53
2018-05-08T05:02:27.961Z,9.63
2018-05-08T05:04:56.048Z,9.30
2018-05-08T05:07:24.168Z,9.00
2018-05-08T05:09:52.248Z,9.20
2018-05-08T05:12:20.354Z,9.50
2018-05-08T05:14:48.451Z,10.17
2018-05-08T05:17:16.612Z,10.00
2018-05-08T05:19:44.716Z,9.13
2018-05-08T05:22:12.898Z,10.17
2018-05-08T05:24:40.997Z,10.23
2018-05-08T05:27:14.602Z,10.17
2018-05-08T05:29:48.122Z,8.90
2018-05-08T05:32:16.238Z,10.50
2018-05-08T05:34:45.125Z,9.90
2018-05-08T05:37:13.231Z,9.73
2018-05-08T05:39:42.363Z,10.53
2018-05-08T05:42:10.458Z,10.37
2018-05-08T05:44:44.011Z,9.37
2018-05-08T05:47:12.122Z,9.87
2018-05-08T05:49:40.222Z,11.23
2018-05-08T05:52:08.340Z,10.83
2018-05-08T05:54:41.413Z,10.47
2018-05-08T05:57:09.789Z,9.70
2018-05-08T05:59:38.799Z,11.17
2018-05-08T06:02:06.915Z,10.47
2018-05-08T06:04:35.003Z,11.57
2018-05-08T06:07:03.118Z,10.40
2018-05-08T06:09:31.231Z,10.73
2018-05-08T06:11:59.372Z,11.03
2018-05-08T06:14:27.472Z,11.37
2018-05-08T06:16:55.624Z,11.03
2018-05-08T06:19:24.487Z,11.17
2018-05-08T06:21:52.600Z,11.73
2018-05-08T06:24:22.068Z,11.50
2018-05-08T06:26:50.185Z,10.80
2018-05-08T06:29:18.331Z,11.43
2018-05-08T06:31:46.444Z,11.13
2018-05-08T06:34:14.852Z,11.63
2018-05-08T06:36:48.504Z,12.03
2018-05-08T06:39:22.698Z,11.67
2018-05-08T06:41:50.733Z,11.33
2018-05-08T06:44:18.889Z,10.60
2018-05-08T06:46:47.770Z,10.50
2018-05-08T06:49:15.787Z,9.97
2018-05-08T06:51:43.879Z,10.67
2018-05-08T06:54:12.971Z,11.17
2018-05-08T06:56:41.079Z,10.10
2018-05-08T06:59:09.167Z,9.57
2018-05-08T07:01:37.264Z,10.07
2018-05-08T07:04:05.380Z,9.27
2018-05-08T07:06:33.499Z,10.27
2018-05-08T07:09:01.608Z,9.10
2018-05-08T07:11:29.751Z,9.87
2018-05-08T07:13:57.883Z,9.17
2018-05-08T07:16:31.582Z,9.40
2018-05-08T07:28:45.261Z,9.50
2018-05-08T07:31:13.353Z,9.20
2018-05-08T07:33:41.546Z,9.47
2018-05-08T07:36:09.624Z,9.47
2018-05-08T07:38:37.725Z,8.73
2018-05-08T07:41:05.899Z,9.53
2018-05-08T07:43:34.010Z,9.27
2018-05-08T07:46:02.461Z,8.83
2018-05-08T07:48:30.559Z,9.63
2018-05-08T07:50:58.687Z,8.87
2018-05-08T07:53:27.584Z,9.83
2018-05-08T07:55:55.684Z,9.67
2018-05-08T07:58:24.622Z,9.10
2018-05-08T08:00:52.775Z,8.50
2018-05-08T08:03:20.907Z,10.40
2018-05-08T08:05:48.975Z,10.47
2018-05-08T08:08:17.428Z,11.27
2018-05-08T08:10:45.564Z,11.13
2018-05-08T08:13:19.207Z,10.57
2018-05-08T08:15:47.683Z,11.13
2018-05-08T08:18:15.854Z,10.87
2018-05-08T08:20:43.959Z,10.43
2018-05-08T08:23:12.068Z,10.77
2018-05-08T08:25:40.164Z,10.23
2018-05-08T08:28:08.346Z,10.23
2018-05-08T08:30:36.447Z,10.23
2018-05-08T08:33:04.553Z,10.57
2018-05-08T08:35:32.790Z,9.43
2018-05-08T08:38:00.820Z,9.83
2018-05-08T08:40:28.911Z,10.33
2018-05-08T08:42:57.347Z,10.80
2018-05-08T08:45:25.479Z,10.13
2018-05-08T08:47:53.646Z,10.53
2018-05-08T08:50:21.717Z,10.93
2018-05-08T08:52:49.837Z,10.70
2018-05-08T08:55:17.943Z,9.77
2018-05-08T08:57:46.047Z,10.63
2018-05-08T09:00:14.229Z,11.10
2018-05-08T09:02:42.322Z,10.93
2018-05-08T09:05:10.418Z,10.77
2018-05-08T09:07:38.532Z,10.33
2018-05-08T09:10:06.630Z,9.40
2018-05-08T09:12:34.804Z,9.60
2018-05-08T09:15:02.896Z,9.80
2018-05-08T09:17:31.044Z,9.57
2018-05-08T09:19:59.124Z,9.70
2018-05-08T09:22:27.228Z,10.67
2018-05-08T09:24:55.314Z,9.17
2018-05-08T09:27:23.471Z,10.37
2018-05-08T09:29:51.545Z,11.13
2018-05-08T09:32:25.104Z,9.73
2018-05-08T09:34:53.204Z,9.47
2018-05-08T09:37:26.889Z,10.43
2018-05-08T09:39:55.060Z,8.87
2018-05-08T09:42:23.184Z,10.13
2018-05-08T09:44:51.295Z,9.47
2018-05-08T09:47:19.400Z,10.53
2018-05-08T09:49:47.488Z,9.67
2018-05-08T09:52:15.584Z,8.97
2018-05-08T09:54:44.188Z,10.07
2018-05-08T09:57:12.320Z,10.33
2018-05-08T09:59:41.008Z,8.93
2018-05-08T10:02:09.186Z,9.37
2018-05-08T10:04:37.279Z,9.13
2018-05-08T10:07:05.368Z,9.47
2018-05-08T10:09:33.458Z,9.20
2018-05-08T10:12:01.895Z,8.83
2018-05-08T10:14:30.135Z,8.73
2018-05-08T10:16:58.239Z,7.50
2018-05-08T10:19:26.450Z,9.23
2018-05-08T10:21:54.508Z,8.17
2018-05-08T10:24:23.303Z,9.67
2018-05-08T10:26:51.412Z,8.73
2018-05-08T10:29:19.540Z,8.57
2018-05-08T10:31:47.630Z,8.10
2018-05-08T10:47:15.834Z,9.23
2018-05-08T10:49:44.066Z,8.60
2018-05-08T10:52:13.151Z,10.00
2018-05-08T10:54:41.254Z,8.90
2018-05-08T10:57:09.438Z,9.43
2018-05-08T10:59:37.542Z,9.40
2018-05-08T11:02:05.683Z,9.03
2018-05-08T11:04:33.800Z,9.10
2018-05-08T11:07:01.991Z,6.13
2018-05-08T11:09:30.108Z,6.57
2018-05-08T11:11:58.208Z,6.10
2018-05-08T11:14:26.320Z,5.53
2018-05-08T11:16:54.414Z,5.50
2018-05-08T11:19:22.509Z,6.80
2018-05-08T11:21:50.666Z,6.93
2018-05-08T11:24:18.764Z,6.50
2018-05-08T11:26:46.975Z,6.17
2018-05-08T11:29:15.027Z,6.70
2018-05-08T11:31:43.102Z,7.30
2018-05-08T11:34:11.286Z,7.30
2018-05-08T11:36:39.376Z,7.63
2018-05-08T11:39:07.462Z,6.03
2018-05-08T11:41:35.586Z,6.50
2018-05-08T11:44:03.687Z,7.03
2018-05-08T11:46:31.774Z,6.57
2018-05-08T11:48:59.923Z,6.90
2018-05-08T11:51:28.014Z,8.10
2018-05-08T11:53:56.997Z,7.07
2018-05-08T11:56:25.125Z,8.50
2018-05-08T11:58:53.222Z,9.23
2018-05-08T12:01:22.261Z,8.63
2018-05-08T12:03:50.443Z,9.50
2018-05-08T12:06:19.196Z,8.47
2018-05-08T12:08:47.288Z,8.07
2018-05-08T12:11:16.301Z,9.47
2018-05-08T12:13:44.403Z,8.43
2018-05-08T12:16:12.514Z,8.33
2018-05-08T12:18:41.300Z,7.93
2018-05-08T12:21:09.704Z,9.07
2018-05-08T12:23:38.717Z,7.53
2018-05-08T12:26:09.535Z,7.13
2018-05-08T12:41:37.707Z,8.70
2018-05-08T12:44:09.356Z,7.63
2018-05-08T12:46:37.463Z,7.33
2018-05-08T12:49:05.543Z,5.40
2018-05-08T12:51:34.321Z,5.73
2018-05-08T12:54:05.343Z,5.60
2018-05-08T12:56:39.098Z,6.13
2018-05-08T12:59:08.069Z,5.63
2018-05-08T13:01:36.807Z,6.13
2018-05-08T13:04:04.936Z,5.73
2018-05-08T13:06:33.119Z,6.73
2018-05-08T13:09:01.208Z,8.67
2018-05-08T13:11:30.151Z,7.40
2018-05-08T13:13:58.309Z,6.90
2018-05-08T13:16:26.442Z,7.77
2018-05-08T13:18:55.137Z,8.70
2018-05-08T13:21:28.856Z,8.23
2018-05-08T13:24:02.493Z,9.47
2018-05-08T13:26:31.006Z,8.33
2018-05-08T13:28:59.432Z,9.20
2018-05-08T13:31:27.488Z,8.67
2018-05-08T13:33:55.606Z,9.40
2018-05-08T13:36:23.733Z,8.47
2018-05-08T13:38:51.868Z,6.47
2018-05-08T13:41:20.104Z,6.37
2018-05-08T13:43:48.193Z,5.70
2018-05-08T13:46:16.340Z,6.73
2018-05-08T13:48:44.453Z,6.47
2018-05-08T13:51:18.164Z,7.27
2018-05-08T13:53:46.309Z,8.10
2018-05-08T13:56:15.231Z,6.93
2018-05-08T13:58:43.924Z,6.63
2018-05-08T14:01:12.008Z,6.97
2018-05-08T14:03:40.167Z,7.07
2018-05-08T14:06:08.271Z,6.93
2018-05-08T14:08:36.376Z,7.27
2018-05-08T14:11:04.541Z,7.33
2018-05-08T14:13:33.403Z,6.93
2018-05-08T14:16:01.511Z,6.40
2018-05-08T14:18:29.602Z,7.33
2018-05-08T14:20:57.698Z,8.90
2018-05-08T14:23:25.795Z,7.20
2018-05-08T14:25:53.879Z,7.00
2018-05-08T14:28:22.441Z,5.00
2018-05-08T14:30:50.581Z,5.40
2018-05-08T14:33:18.666Z,4.43
2018-05-08T14:35:46.797Z,3.90
2018-05-08T14:38:14.888Z,4.60
2018-05-08T14:40:44.489Z,4.13
2018-05-08T14:43:12.579Z,3.83
2018-05-08T14:45:41.676Z,4.37
2018-05-08T14:48:10.725Z,4.50
2018-05-08T14:50:38.825Z,4.13
2018-05-08T14:53:06.903Z,4.07
2018-05-08T14:55:35.034Z,4.10
2018-05-08T14:58:03.172Z,4.00
2018-05-08T15:00:31.295Z,3.30
2018-05-08T15:02:59.378Z,3.90
2018-05-08T15:05:27.477Z,3.67
2018-05-08T15:07:55.556Z,3.50
2018-05-08T15:10:23.675Z,3.30
2018-05-08T15:12:52.297Z,3.50
2018-05-08T15:15:20.403Z,3.87
2018-05-08T15:17:48.515Z,4.10
2018-05-08T15:20:16.627Z,3.90
2018-05-08T15:22:44.921Z,3.97
2018-05-08T15:25:13.130Z,4.33
2018-05-08T15:27:41.191Z,4.20
2018-05-08T15:30:09.285Z,4.03
2018-05-08T15:32:37.409Z,4.33
2018-05-08T15:35:05.730Z,3.90
2018-05-08T15:37:39.653Z,4.33
2018-05-08T15:40:13.294Z,4.33
2018-05-08T15:42:41.385Z,4.70
2018-05-08T15:45:09.470Z,4.30
2018-05-08T15:47:37.595Z,4.53
2018-05-08T15:50:05.728Z,4.57
2018-05-08T15:52:34.169Z,4.10
2018-05-08T15:55:02.315Z,4.60
2018-05-08T15:57:30.448Z,3.83
2018-05-08T15:59:59.187Z,4.27
2018-05-08T16:02:27.387Z,4.20
2018-05-08T16:04:55.475Z,4.23
2018-05-08T16:07:24.107Z,4.43
2018-05-08T16:09:53.318Z,4.37
2018-05-08T16:12:21.513Z,4.07
2018-05-08T16:14:49.867Z,3.67
2018-05-08T16:17:18.049Z,4.37
2018-05-08T16:19:46.183Z,4.47
2018-05-08T16:22:14.813Z,4.50
2018-05-08T16:24:43.718Z,3.80
2018-05-08T16:27:11.827Z,8.63
2018-05-08T16:42:39.960Z,13.53
2018-05-08T16:45:08.405Z,12.43
2018-05-08T16:47:36.483Z,13.07
2018-05-08T16:50:04.607Z,13.60
2018-05-08T16:52:32.804Z,13.30
2018-05-08T16:55:00.921Z,12.13
2018-05-08T16:57:29.359Z,12.80
2018-05-08T16:59:57.471Z,13.73
2018-05-08T17:02:25.596Z,13.23
2018-05-08T17:04:53.764Z,13.40
2018-05-08T17:07:21.904Z,13.80
2018-05-08T17:09:50.044Z,13.47
2018-05-08T17:12:18.155Z,13.83
2018-05-08T17:14:46.256Z,13.87
2018-05-08T17:17:15.449Z,13.60
2018-05-08T17:19:44.505Z,12.70
2018-05-08T17:22:12.602Z,12.17
2018-05-08T17:24:40.710Z,12.17
2018-05-08T17:27:08.812Z,11.63
2018-05-08T17:29:36.912Z,12.10
2018-05-08T17:45:06.005Z,13.57
2018-05-08T17:47:34.676Z,11.87
2018-05-08T17:50:03.519Z,13.00
2018-05-08T17:52:32.445Z,12.90
2018-05-08T17:55:01.250Z,12.90
2018-05-08T18:10:30.290Z,12.47
2018-05-08T18:12:58.425Z,10.80
2018-05-08T18:15:26.608Z,12.00
2018-05-08T18:18:00.764Z,10.53
2018-05-08T18:20:29.975Z,11.07
2018-05-08T18:22:58.124Z,10.67
2018-05-08T18:25:26.265Z,10.17
2018-05-08T18:27:55.064Z,10.53
2018-05-08T18:30:23.226Z,11.23
2018-05-08T18:32:51.392Z,9.93
2018-05-08T18:35:19.493Z,10.80
2018-05-08T18:37:47.609Z,10.47
2018-05-08T18:40:15.735Z,10.10
2018-05-08T18:42:44.445Z,11.47
2018-05-08T18:45:13.187Z,11.07
2018-05-08T18:47:41.273Z,10.57
2018-05-08T18:50:09.420Z,10.00
2018-05-08T18:52:37.555Z,11.03
2018-05-08T18:55:05.680Z,10.03
2018-05-08T18:57:33.908Z,9.77
2018-05-08T19:00:07.860Z,10.27
2018-05-08T19:02:41.381Z,10.53
2018-05-08T19:05:09.515Z,10.47
2018-05-08T19:07:37.639Z,10.60
2018-05-08T19:10:05.803Z,11.20
2018-05-08T19:12:35.493Z,10.03
2018-05-08T19:15:09.323Z,11.37
2018-05-08T19:17:37.395Z,11.37
2018-05-08T19:22:38.589Z,10.50
2018-05-08T19:25:06.706Z,11.33
2018-05-08T19:27:34.803Z,11.70
2018-05-08T19:30:08.384Z,11.40
2018-05-08T19:32:36.483Z,11.20
2018-05-08T19:35:11.273Z,10.23
2018-05-08T19:37:45.096Z,11.30
2018-05-08T19:40:13.245Z,10.30
2018-05-08T19:42:41.392Z,10.07
2018-05-08T19:45:09.845Z,10.53
2018-05-08T19:47:38.337Z,10.50
2018-05-08T19:50:06.707Z,10.73
2018-05-08T19:52:34.872Z,11.10
2018-05-08T19:55:02.916Z,9.60
2018-05-08T19:57:31.027Z,10.53
2018-05-08T19:59:59.216Z,11.60
2018-05-08T20:02:27.305Z,11.13
2018-05-08T20:04:55.400Z,11.47
2018-05-08T20:07:23.532Z,11.20
2018-05-08T20:09:51.628Z,11.53
2018-05-08T20:12:19.775Z,11.10
2018-05-08T20:14:47.870Z,11.47
2018-05-08T20:17:15.956Z,10.63
2018-05-08T20:19:44.269Z,11.00
2018-05-08T20:22:12.379Z,11.63
2018-05-08T20:24:41.288Z,12.07
2018-05-08T20:27:09.407Z,12.67
2018-05-08T20:29:37.498Z,14.53
2018-05-08T20:32:05.598Z,13.77
2018-05-08T20:34:33.711Z,14.20
2018-05-08T20:37:02.596Z,14.43
2018-05-08T20:39:31.330Z,15.73
2018-05-08T20:41:59.432Z,16.83
2018-05-08T20:44:27.534Z,15.83
2018-05-08T20:46:55.652Z,17.00
2018-05-08T20:49:23.777Z,16.57
2018-05-08T20:51:57.518Z,17.20
2018-05-08T20:54:31.090Z,18.23
2018-05-08T20:56:59.268Z,16.83
2018-05-08T20:59:27.393Z,17.03
2018-05-08T21:01:55.497Z,17.17
2018-05-08T21:04:23.620Z,16.53
2018-05-08T21:06:52.265Z,17.60
2018-05-08T21:09:20.419Z,17.07
2018-05-08T21:11:49.270Z,16.57
2018-05-08T21:14:17.378Z,17.53
2018-05-08T21:16:45.495Z,17.70
2018-05-08T21:19:13.614Z,18.00
2018-05-08T21:21:41.717Z,17.47
2018-05-08T21:24:09.835Z,18.50
2018-05-08T21:26:37.955Z,18.93
2018-05-08T21:29:06.093Z,17.87
2018-05-08T21:31:34.961Z,18.00
2018-05-08T21:34:03.062Z,19.13
2018-05-08T21:36:31.161Z,18.60
2018-05-08T21:38:59.262Z,19.33
2018-05-08T21:41:28.194Z,19.17
2018-05-08T21:43:56.805Z,18.37
2018-05-08T21:46:24.898Z,20.07
2018-05-08T21:48:53.000Z,18.87
2018-05-08T21:51:21.918Z,18.70
2018-05-08T21:53:50.014Z,18.77
2018-05-08T21:56:18.164Z,18.70
2018-05-08T21:58:46.252Z,19.63
2018-05-08T22:01:14.352Z,21.00
2018-05-08T22:03:42.456Z,20.50
2018-05-08T22:06:10.550Z,20.40
2018-05-08T22:08:38.647Z,20.23
2018-05-08T22:11:06.749Z,21.63
2018-05-08T22:13:35.667Z,21.60
2018-05-08T22:16:03.791Z,21.20
2018-05-08T22:18:31.889Z,21.27
2018-05-08T22:20:59.991Z,22.77
2018-05-08T22:23:28.383Z,23.03
2018-05-08T22:25:56.470Z,22.17
2018-05-08T22:28:30.111Z,23.37
2018-05-08T22:30:58.239Z,23.43
2018-05-08T22:33:26.327Z,22.60
2018-05-08T22:35:54.489Z,23.50
2018-05-08T22:38:22.571Z,23.93
2018-05-08T22:40:51.407Z,24.63
2018-05-08T22:43:19.555Z,25.77
2018-05-08T22:45:47.674Z,25.37
2018-05-08T22:48:15.767Z,25.97
2018-05-08T22:50:43.864Z,25.80
2018-05-08T22:53:11.968Z,27.73
2018-05-08T22:55:40.059Z,26.60
2018-05-08T22:58:08.217Z,26.77
2018-05-08T23:00:36.813Z,27.60
2018-05-08T23:03:04.947Z,26.90
2018-05-08T23:05:33.061Z,26.23
2018-05-08T23:08:01.151Z,26.93
2018-05-08T23:10:29.249Z,25.03
2018-05-08T23:12:57.343Z,25.07
2018-05-08T23:15:25.439Z,25.97
2018-05-08T23:17:53.587Z,24.90
2018-05-08T23:20:21.683Z,26.27
2018-05-08T23:22:49.815Z,26.00
2018-05-08T23:25:17.932Z,23.33
2018-05-08T23:27:46.179Z,25.70
2018-05-08T23:30:14.283Z,25.87
2018-05-08T23:32:42.731Z,24.10
2018-05-08T23:35:11.701Z,26.50
2018-05-08T23:37:40.272Z,26.00
2018-05-08T23:40:08.373Z,26.20
2018-05-08T23:42:36.472Z,24.97
2018-05-08T23:45:04.564Z,23.57
2018-05-08T23:47:32.663Z,23.00
2018-05-08T23:50:00.777Z,24.20
2018-05-08T23:52:28.897Z,21.97
2018-05-08T23:54:57.327Z,22.53
2018-05-08T23:57:25.432Z,22.47
2018-05-08T23:59:54.256Z,21.80
